createdAt,value
2023-03-02T00:01:43.898Z,-4.50
2023-03-02T00:04:20.882Z,-4.50
2023-03-02T00:06:49.873Z,-4.50
2023-03-02T00:09:17.923Z,-4.50
2023-03-02T00:11:45.816Z,-4.50
2023-03-02T00:14:13.250Z,-4.50
2023-03-02T00:16:40.912Z,-4.50
2023-03-02T00:19:08.592Z,-4.50
2023-03-02T00:21:35.955Z,-4.50
2023-03-02T00:24:03.434Z,-4.50
2023-03-02T00:26:34.661Z,-4.60
2023-03-02T00:29:02.618Z,-4.60
2023-03-02T00:31:30.166Z,-4.70
2023-03-02T00:33:57.762Z,-4.70
2023-03-02T00:36:25.536Z,-4.60
2023-03-02T00:38:53.233Z,-4.40
2023-03-02T00:41:21.721Z,-4.30
2023-03-02T00:43:50.415Z,-4.40
2023-03-02T00:46:20.610Z,-4.40
2023-03-02T00:48:48.599Z,-4.50
2023-03-02T00:51:16.456Z,-4.60
2023-03-02T00:53:44.067Z,-4.60
2023-03-02T00:56:13.554Z,-4.40
2023-03-02T00:58:46.788Z,-4.10
2023-03-02T01:01:15.952Z,-4.20
2023-03-02T01:03:47.664Z,-4.30
2023-03-02T01:06:19.072Z,-4.50
2023-03-02T01:08:47.171Z,-4.60
2023-03-02T01:11:16.807Z,-4.70
2023-03-02T01:13:45.312Z,-4.80
2023-03-02T01:16:13.021Z,-4.80
2023-03-02T01:18:40.918Z,-4.80
2023-03-02T01:21:12.407Z,-4.90
2023-03-02T01:23:39.845Z,-4.90
2023-03-02T01:26:07.798Z,-5.00
2023-03-02T01:28:35.338Z,-4.90
2023-03-02T01:31:04.673Z,-5.00
2023-03-02T01:33:32.802Z,-5.00
2023-03-02T01:36:00.249Z,-5.10
2023-03-02T01:38:28.225Z,-5.10
2023-03-02T01:40:56.270Z,-5.30
2023-03-02T01:43:23.938Z,-5.30
2023-03-02T01:46:14.228Z,-5.30
2023-03-02T01:49:03.162Z,-5.30
2023-03-02T01:51:45.985Z,-5.30
2023-03-02T01:54:23.177Z,-5.40
2023-03-02T01:56:58.533Z,-5.40
2023-03-02T01:59:27.838Z,-5.40
2023-03-02T02:01:58.636Z,-5.50
2023-03-02T02:04:28.934Z,-5.50
2023-03-02T02:07:01.505Z,-5.50
2023-03-02T02:09:32.259Z,-5.50
2023-03-02T02:11:59.650Z,-5.60
2023-03-02T02:14:27.743Z,-5.60
2023-03-02T02:16:55.579Z,-5.60
2023-03-02T02:20:19.635Z,-5.50
2023-03-02T02:23:16.219Z,-5.50
2023-03-02T02:26:26.692Z,-5.60
2023-03-02T02:29:12.380Z,-5.60
2023-03-02T02:32:06.769Z,-5.60
2023-03-02T02:34:41.323Z,-5.50
2023-03-02T02:37:26.176Z,-5.60
2023-03-02T02:39:54.831Z,-5.60
2023-03-02T02:42:29.899Z,-5.70
2023-03-02T02:45:02.907Z,-5.70
2023-03-02T02:47:30.591Z,-5.70
2023-03-02T02:49:59.003Z,-5.80
2023-03-02T02:52:29.004Z,-5.70
2023-03-02T02:54:58.000Z,-5.80
2023-03-02T02:57:29.553Z,-5.70
2023-03-02T03:00:00.926Z,-5.70
2023-03-02T03:02:37.361Z,-5.70
2023-03-02T03:05:05.498Z,-5.70
2023-03-02T03:07:35.792Z,-5.70
2023-03-02T03:10:35.155Z,-5.70
2023-03-02T03:13:02.883Z,-5.80
2023-03-02T03:15:30.429Z,-5.80
2023-03-02T03:17:59.235Z,-5.80
2023-03-02T03:20:28.791Z,-5.80
2023-03-02T03:22:59.301Z,-5.90
2023-03-02T03:25:28.111Z,-5.90
2023-03-02T03:27:56.393Z,-5.90
2023-03-02T03:30:24.299Z,-5.90
2023-03-02T03:32:52.611Z,-5.90
2023-03-02T03:35:20.161Z,-5.90
2023-03-02T03:37:48.879Z,-6.00
2023-03-02T03:40:18.471Z,-6.00
2023-03-02T03:42:47.318Z,-6.00
2023-03-02T03:45:14.814Z,-5.90
2023-03-02T03:47:44.148Z,-5.90
2023-03-02T03:50:12.023Z,-5.80
2023-03-02T03:52:40.358Z,-5.80
2023-03-02T03:55:15.825Z,-5.90
2023-03-02T03:57:45.400Z,-6.00
2023-03-02T04:00:17.028Z,-6.00
2023-03-02T04:02:51.707Z,-6.10
2023-03-02T04:05:20.492Z,-6.10
2023-03-02T04:07:51.703Z,-6.10
2023-03-02T04:10:19.906Z,-6.10
2023-03-02T04:12:48.233Z,-6.10
2023-03-02T04:15:16.934Z,-6.10
2023-03-02T04:17:46.573Z,-6.00
2023-03-02T04:20:21.207Z,-6.10
2023-03-02T04:22:53.524Z,-6.10
2023-03-02T04:25:24.876Z,-6.10
2023-03-02T04:27:55.590Z,-6.20
2023-03-02T04:30:27.001Z,-6.20
2023-03-02T04:32:57.539Z,-6.20
2023-03-02T04:35:27.013Z,-6.20
2023-03-02T04:37:54.684Z,-6.20
2023-03-02T04:40:22.185Z,-6.10
2023-03-02T04:42:49.677Z,-6.10
2023-03-02T04:45:17.421Z,-6.10
2023-03-02T04:47:45.582Z,-6.10
2023-03-02T04:50:14.340Z,-6.10
2023-03-02T04:52:42.284Z,-6.20
2023-03-02T04:55:16.313Z,-6.20
2023-03-02T04:57:44.067Z,-6.20
2023-03-02T05:00:13.021Z,-6.30
2023-03-02T05:02:41.296Z,-6.40
2023-03-02T05:05:18.380Z,-6.40
2023-03-02T05:07:46.398Z,-6.40
2023-03-02T05:10:15.289Z,-6.40
2023-03-02T05:12:57.919Z,-6.50
2023-03-02T05:15:31.654Z,-6.50
2023-03-02T05:17:59.783Z,-6.50
2023-03-02T05:20:27.796Z,-6.50
2023-03-02T05:22:56.371Z,-6.50
2023-03-02T05:25:24.810Z,-6.50
2023-03-02T05:27:53.052Z,-6.50
2023-03-02T05:30:21.612Z,-6.50
2023-03-02T05:32:50.036Z,-6.60
2023-03-02T05:35:18.072Z,-6.60
2023-03-02T05:37:46.183Z,-6.60
2023-03-02T05:40:17.740Z,-6.60
2023-03-02T05:42:45.633Z,-6.60
2023-03-02T05:45:23.055Z,-6.50
2023-03-02T05:47:50.685Z,-6.50
2023-03-02T05:50:18.268Z,-6.60
2023-03-02T05:52:46.405Z,-6.60
2023-03-02T05:55:18.490Z,-6.60
2023-03-02T05:57:46.688Z,-6.50
2023-03-02T06:00:14.913Z,-6.50
2023-03-02T06:02:42.987Z,-6.50
2023-03-02T06:05:13.137Z,-6.50
2023-03-02T06:10:57.186Z,-6.20
2023-03-02T06:13:24.707Z,-6.10
2023-03-02T06:15:52.149Z,-6.10
2023-03-02T06:18:19.591Z,-6.00
2023-03-02T06:20:47.041Z,-5.90
2023-03-02T06:23:14.646Z,-5.90
2023-03-02T06:25:48.174Z,-5.80
2023-03-02T06:28:16.919Z,-5.70
2023-03-02T06:30:44.299Z,-5.60
2023-03-02T06:33:11.771Z,-5.60
2023-03-02T06:35:39.960Z,-5.50
2023-03-02T06:38:07.685Z,-5.40
2023-03-02T06:40:35.135Z,-5.30
2023-03-02T06:43:04.226Z,-5.20
2023-03-02T06:45:34.017Z,-5.10
2023-03-02T06:48:02.273Z,-4.90
2023-03-02T06:50:30.106Z,-4.70
2023-03-02T06:53:02.000Z,-4.50
2023-03-02T06:55:31.882Z,-4.20
2023-03-02T06:57:59.891Z,-3.90
2023-03-02T07:00:28.413Z,-3.50
2023-03-02T07:03:00.299Z,-3.20
2023-03-02T07:05:29.884Z,-3.00
2023-03-02T07:07:57.347Z,-2.90
2023-03-02T07:10:24.852Z,-2.80
2023-03-02T07:12:53.615Z,-2.70
2023-03-02T07:15:22.209Z,-2.70
2023-03-02T07:17:49.622Z,-2.60
2023-03-02T07:20:18.262Z,-2.50
2023-03-02T07:22:45.914Z,-2.30
2023-03-02T07:25:13.948Z,-2.20
2023-03-02T07:27:41.941Z,-2.00
2023-03-02T07:30:10.319Z,-1.90
2023-03-02T07:32:37.814Z,-1.80
2023-03-02T07:35:05.838Z,-1.70
2023-03-02T07:37:33.311Z,-1.50
2023-03-02T07:40:00.993Z,-1.40
2023-03-02T07:42:28.580Z,-1.20
2023-03-02T07:44:59.089Z,-1.10
2023-03-02T07:47:26.578Z,-1.00
2023-03-02T07:49:53.990Z,-0.80
2023-03-02T07:52:22.900Z,-0.60
2023-03-02T07:54:50.908Z,-0.30
2023-03-02T07:57:18.384Z,-0.20
2023-03-02T07:59:45.955Z,-0.10
2023-03-02T08:02:15.421Z,0.10
2023-03-02T08:04:43.338Z,0.20
2023-03-02T08:07:10.807Z,0.40
2023-03-02T08:09:40.040Z,0.60
2023-03-02T08:12:07.658Z,0.70
2023-03-02T08:14:35.098Z,0.80
2023-03-02T08:17:03.761Z,1.00
2023-03-02T08:19:31.244Z,1.20
2023-03-02T08:21:58.795Z,1.40
2023-03-02T08:24:26.365Z,1.50
2023-03-02T08:26:55.419Z,1.50
2023-03-02T08:29:24.625Z,1.60
2023-03-02T08:31:54.317Z,1.80
2023-03-02T08:34:22.117Z,1.90
2023-03-02T08:36:50.493Z,2.10
2023-03-02T08:39:18.691Z,2.30
2023-03-02T08:41:46.416Z,2.40
2023-03-02T08:44:13.883Z,2.40
2023-03-02T08:46:41.323Z,2.60
2023-03-02T08:49:09.178Z,2.80
2023-03-02T08:51:36.595Z,2.90
2023-03-02T08:54:04.221Z,2.80
2023-03-02T08:56:36.362Z,2.90
2023-03-02T08:59:09.891Z,3.00
2023-03-02T09:01:38.594Z,3.10
2023-03-02T09:04:07.895Z,3.30
2023-03-02T09:06:40.935Z,3.40
2023-03-02T09:09:10.211Z,3.40
2023-03-02T09:11:37.700Z,3.60
2023-03-02T09:14:05.417Z,3.70
2023-03-02T09:16:33.280Z,3.90
2023-03-02T09:19:00.744Z,3.80
2023-03-02T09:21:28.511Z,3.80
2023-03-02T09:23:58.230Z,3.70
2023-03-02T09:26:26.861Z,3.70
2023-03-02T09:28:55.230Z,3.90
2023-03-02T09:31:23.192Z,4.00
2023-03-02T09:33:50.705Z,4.20
2023-03-02T09:36:24.390Z,4.30
2023-03-02T09:38:52.436Z,4.50
2023-03-02T09:42:15.577Z,4.70
2023-03-02T09:45:24.026Z,4.90
2023-03-02T09:48:31.742Z,5.00
2023-03-02T09:51:07.575Z,5.00
2023-03-02T09:53:40.807Z,5.10
2023-03-02T09:56:17.976Z,5.00
2023-03-02T09:58:53.361Z,5.10
2023-03-02T10:01:51.707Z,5.20
2023-03-02T10:04:27.692Z,5.20
2023-03-02T10:07:10.934Z,5.40
2023-03-02T10:09:39.292Z,5.50
2023-03-02T10:12:44.926Z,5.60
2023-03-02T10:15:41.932Z,5.80
2023-03-02T10:18:35.545Z,6.10
2023-03-02T10:21:22.564Z,6.30
2023-03-02T10:24:01.197Z,6.40
2023-03-02T10:26:44.085Z,6.50
2023-03-02T10:29:40.879Z,6.60
2023-03-02T10:32:27.816Z,6.60
2023-03-02T10:34:55.848Z,6.60
2023-03-02T10:37:28.446Z,6.50
2023-03-02T10:39:56.824Z,6.60
2023-03-02T10:42:43.388Z,6.50
2023-03-02T10:45:25.079Z,6.50
2023-03-02T10:48:06.655Z,6.50
2023-03-02T10:50:34.287Z,6.60
2023-03-02T10:53:04.814Z,6.70
2023-03-02T10:55:34.575Z,6.90
2023-03-02T10:58:07.733Z,7.00
2023-03-02T11:00:36.853Z,7.10
2023-03-02T11:03:19.634Z,7.20
2023-03-02T11:05:47.862Z,7.40
2023-03-02T11:08:24.124Z,7.60
2023-03-02T11:11:03.557Z,7.70
2023-03-02T11:13:36.690Z,7.90
2023-03-02T11:16:31.000Z,8.00
2023-03-02T11:19:03.503Z,7.90
2023-03-02T11:22:06.648Z,8.00
2023-03-02T11:24:40.841Z,8.00
2023-03-02T11:27:25.026Z,8.00
2023-03-02T11:30:00.923Z,8.00
2023-03-02T11:32:55.942Z,8.10
2023-03-02T11:35:46.461Z,8.00
2023-03-02T11:38:47.643Z,7.90
2023-03-02T11:41:41.397Z,8.00
2023-03-02T11:44:18.749Z,8.10
2023-03-02T11:46:51.316Z,8.20
2023-03-02T11:49:37.176Z,8.30
2023-03-02T11:52:04.854Z,8.40
2023-03-02T11:54:43.357Z,8.40
2023-03-02T11:57:25.582Z,8.40
2023-03-02T11:59:53.579Z,8.30
2023-03-02T12:02:23.903Z,8.20
2023-03-02T12:05:06.206Z,8.20
2023-03-02T12:07:33.598Z,8.30
2023-03-02T12:10:06.311Z,8.30
2023-03-02T12:12:41.627Z,8.40
2023-03-02T12:15:38.768Z,8.60
2023-03-02T12:18:47.176Z,8.50
2023-03-02T12:21:23.141Z,8.50
2023-03-02T12:23:56.283Z,8.70
2023-03-02T12:26:28.563Z,8.60
2023-03-02T12:29:19.062Z,8.50
2023-03-02T12:31:55.129Z,8.60
2023-03-02T12:34:32.552Z,8.60
2023-03-02T12:37:41.444Z,8.70
2023-03-02T12:40:27.596Z,8.60
2023-03-02T12:43:17.389Z,8.50
2023-03-02T12:46:25.724Z,8.60
2023-03-02T12:49:32.052Z,8.60
2023-03-02T12:52:18.435Z,8.60
2023-03-02T12:54:45.964Z,8.50
2023-03-02T12:57:19.296Z,8.50
2023-03-02T12:59:54.865Z,8.60
2023-03-02T13:02:33.740Z,8.60
2023-03-02T13:05:07.447Z,8.60
2023-03-02T13:07:57.997Z,8.60
2023-03-02T13:11:02.732Z,8.60
2023-03-02T13:13:39.133Z,8.40
2023-03-02T13:16:26.249Z,8.50
2023-03-02T13:18:57.515Z,8.50
2023-03-02T13:21:32.858Z,8.60
2023-03-02T13:24:01.419Z,8.70
2023-03-02T13:26:34.749Z,8.90
2023-03-02T13:29:20.684Z,8.80
2023-03-02T13:31:48.315Z,8.70
2023-03-02T13:34:46.727Z,8.70
2023-03-02T13:37:21.778Z,8.70
2023-03-02T13:39:57.036Z,8.80
2023-03-02T13:42:36.530Z,8.80
2023-03-02T13:45:24.165Z,8.90
2023-03-02T13:47:52.467Z,8.90
2023-03-02T13:50:25.937Z,9.00
2023-03-02T13:52:57.168Z,8.90
2023-03-02T13:55:25.370Z,8.70
2023-03-02T13:57:54.407Z,8.70
2023-03-02T14:00:28.659Z,8.70
2023-03-02T14:02:56.025Z,8.70
2023-03-02T14:05:27.189Z,8.80
2023-03-02T14:07:54.600Z,8.80
2023-03-02T14:10:22.044Z,9.00
2023-03-02T14:13:13.167Z,9.00
2023-03-02T14:15:49.400Z,8.90
2023-03-02T14:18:28.470Z,8.90
2023-03-02T14:20:56.935Z,8.80
2023-03-02T14:23:27.950Z,8.80
2023-03-02T14:25:56.637Z,8.80
2023-03-02T14:28:35.679Z,8.90
2023-03-02T14:31:03.234Z,9.00
2023-03-02T14:33:30.716Z,9.00
2023-03-02T14:35:58.861Z,9.10
2023-03-02T14:38:27.141Z,9.00
2023-03-02T14:40:54.840Z,9.00
2023-03-02T14:43:23.935Z,9.00
2023-03-02T14:45:55.037Z,9.00
2023-03-02T14:48:22.446Z,9.00
2023-03-02T14:50:51.476Z,9.00
2023-03-02T14:53:29.701Z,9.00
2023-03-02T14:55:57.278Z,9.00
2023-03-02T14:58:33.874Z,8.90
2023-03-02T15:01:01.440Z,8.80
2023-03-02T15:03:29.482Z,8.80
2023-03-02T15:06:01.589Z,8.70
2023-03-02T15:08:30.121Z,8.70
2023-03-02T15:10:58.130Z,8.60
2023-03-02T15:13:25.512Z,8.60
2023-03-02T15:15:53.151Z,8.60
2023-03-02T15:18:20.560Z,8.50
2023-03-02T15:20:48.012Z,8.40
2023-03-02T15:23:15.465Z,8.30
2023-03-02T15:25:43.160Z,8.30
2023-03-02T15:28:10.823Z,8.30
2023-03-02T15:30:38.282Z,8.30
2023-03-02T15:33:05.735Z,8.30
2023-03-02T15:35:33.206Z,8.30
2023-03-02T15:38:02.658Z,8.20
2023-03-02T15:40:30.105Z,8.10
2023-03-02T15:42:57.581Z,8.00
2023-03-02T15:45:25.012Z,7.90
2023-03-02T15:47:52.468Z,7.80
2023-03-02T15:50:19.864Z,7.80
2023-03-02T15:52:47.437Z,7.80
2023-03-02T15:55:15.646Z,7.80
2023-03-02T15:57:43.193Z,7.70
2023-03-02T16:00:13.517Z,7.70
2023-03-02T16:02:41.234Z,7.70
2023-03-02T16:05:09.399Z,7.70
2023-03-02T16:07:37.393Z,7.80
2023-03-02T16:10:05.556Z,7.60
2023-03-02T16:12:33.050Z,7.60
2023-03-02T16:15:00.470Z,7.50
2023-03-02T16:17:27.975Z,7.50
2023-03-02T16:19:55.392Z,7.40
2023-03-02T16:22:22.904Z,7.20
2023-03-02T16:24:50.467Z,7.00
2023-03-02T16:27:18.097Z,6.70
2023-03-02T16:29:45.485Z,6.40
2023-03-02T16:32:13.116Z,6.10
2023-03-02T16:34:40.674Z,5.80
2023-03-02T16:37:08.157Z,5.50
2023-03-02T16:39:36.376Z,5.30
2023-03-02T16:42:04.548Z,5.00
2023-03-02T16:44:31.933Z,4.80
2023-03-02T16:46:59.387Z,4.50
2023-03-02T16:49:26.821Z,4.20
2023-03-02T16:51:58.404Z,4.00
2023-03-02T16:54:25.959Z,3.80
2023-03-02T16:56:53.432Z,3.70
2023-03-02T16:59:20.842Z,3.50
2023-03-02T17:01:48.458Z,3.60
2023-03-02T17:04:18.445Z,3.60
2023-03-02T17:06:59.777Z,3.60
2023-03-02T17:09:28.226Z,3.60
2023-03-02T17:11:55.703Z,3.50
2023-03-02T17:14:23.182Z,3.40
2023-03-02T17:16:50.636Z,3.20
2023-03-02T17:19:18.061Z,3.10
2023-03-02T17:21:45.567Z,3.10
2023-03-02T17:24:13.878Z,2.90
2023-03-02T17:26:41.286Z,2.70
2023-03-02T17:29:08.806Z,2.50
2023-03-02T17:31:36.403Z,2.20
2023-03-02T17:34:03.952Z,2.20
2023-03-02T17:36:36.608Z,2.40
2023-03-02T17:39:05.668Z,2.30
2023-03-02T17:41:34.733Z,2.10
2023-03-02T17:44:03.324Z,1.90
2023-03-02T17:46:32.601Z,1.70
2023-03-02T17:49:01.008Z,1.60
2023-03-02T17:51:29.674Z,1.50
2023-03-02T17:53:57.145Z,1.40
2023-03-02T17:56:26.466Z,1.20
2023-03-02T17:58:56.036Z,1.10
2023-03-02T18:01:23.589Z,1.10
2023-03-02T18:03:51.246Z,1.00
2023-03-02T18:06:20.737Z,0.90
2023-03-02T18:08:49.490Z,0.90
2023-03-02T18:11:20.853Z,0.90
2023-03-02T18:13:49.032Z,0.80
2023-03-02T18:16:16.556Z,0.80
2023-03-02T18:18:44.091Z,0.70
2023-03-02T18:21:11.552Z,0.50
2023-03-02T18:23:39.918Z,0.50
2023-03-02T18:26:08.440Z,0.50
2023-03-02T18:28:35.901Z,0.60
2023-03-02T18:31:03.586Z,0.70
2023-03-02T18:33:31.122Z,0.90
2023-03-02T18:36:00.551Z,1.20
2023-03-02T18:38:31.075Z,1.40
2023-03-02T18:41:00.770Z,1.70
2023-03-02T18:43:28.531Z,2.00
2023-03-02T18:45:56.941Z,2.30
2023-03-02T18:48:25.119Z,2.70
2023-03-02T18:50:52.599Z,3.10
2023-03-02T18:53:20.164Z,3.10
2023-03-02T18:55:47.579Z,3.30
2023-03-02T18:58:20.467Z,3.40
2023-03-02T19:00:48.301Z,3.40
2023-03-02T19:03:17.442Z,3.40
2023-03-02T19:05:45.194Z,3.30
2023-03-02T19:08:12.727Z,3.30
2023-03-02T19:10:42.348Z,3.30
2023-03-02T19:13:11.763Z,3.30
2023-03-02T19:15:40.231Z,3.20
2023-03-02T19:18:08.022Z,3.10
2023-03-02T19:20:35.711Z,3.00
2023-03-02T19:23:03.386Z,3.00
2023-03-02T19:25:30.882Z,3.00
2023-03-02T19:27:58.283Z,2.90
2023-03-02T19:30:26.943Z,2.90
2023-03-02T19:32:54.743Z,2.80
2023-03-02T19:35:25.818Z,2.70
2023-03-02T19:37:53.254Z,2.70
2023-03-02T19:40:24.690Z,2.50
2023-03-02T19:42:53.680Z,2.40
2023-03-02T19:45:25.023Z,2.30
2023-03-02T19:47:52.773Z,2.30
2023-03-02T19:50:21.664Z,2.10
2023-03-02T19:52:49.267Z,1.90
2023-03-02T19:55:16.817Z,1.70
2023-03-02T19:57:44.414Z,1.60
2023-03-02T20:00:16.385Z,1.50
2023-03-02T20:02:45.129Z,1.40
2023-03-02T20:05:12.975Z,1.20
2023-03-02T20:07:41.862Z,1.10
2023-03-02T20:10:11.013Z,1.10
2023-03-02T20:12:38.420Z,1.00
2023-03-02T20:15:07.145Z,1.10
2023-03-02T20:17:34.798Z,1.10
2023-03-02T20:20:03.660Z,1.00
2023-03-02T20:22:31.052Z,1.00
2023-03-02T20:24:58.511Z,0.90
2023-03-02T20:27:25.939Z,0.70
2023-03-02T20:29:53.419Z,0.80
2023-03-02T20:32:21.215Z,0.80
2023-03-02T20:34:48.845Z,0.70
2023-03-02T20:37:16.450Z,0.60
2023-03-02T20:39:47.946Z,0.60
2023-03-02T20:42:15.821Z,0.50
2023-03-02T20:44:43.299Z,0.60
2023-03-02T20:47:14.022Z,0.70
2023-03-02T20:49:42.367Z,0.80
2023-03-02T20:52:10.489Z,1.00
2023-03-02T20:54:40.940Z,0.90
2023-03-02T20:57:09.175Z,0.70
2023-03-02T20:59:37.735Z,0.50
2023-03-02T21:02:06.193Z,0.40
2023-03-02T21:04:34.674Z,0.30
2023-03-02T21:07:02.547Z,0.20
2023-03-02T21:09:30.719Z,0.20
2023-03-02T21:11:58.940Z,0.10
2023-03-02T21:14:27.593Z,-0.10
2023-03-02T21:16:55.042Z,-0.40
2023-03-02T21:19:22.566Z,-0.40
2023-03-02T21:21:50.014Z,-0.30
2023-03-02T21:24:17.798Z,-0.30
2023-03-02T21:26:46.788Z,-0.20
2023-03-02T21:29:15.047Z,-0.10
2023-03-02T21:31:43.899Z,-0.10
2023-03-02T21:34:13.009Z,-0.20
2023-03-02T21:36:41.142Z,-0.20
2023-03-02T21:39:09.853Z,-0.30
2023-03-02T21:41:37.488Z,-0.30
2023-03-02T21:44:06.103Z,-0.40
2023-03-02T21:46:34.989Z,-0.50
2023-03-02T21:49:02.596Z,-0.60
2023-03-02T21:51:30.141Z,-0.60
2023-03-02T21:53:57.587Z,-0.60
2023-03-02T21:56:25.925Z,-0.60
2023-03-02T21:58:56.027Z,-0.70
2023-03-02T22:01:24.674Z,-0.70
2023-03-02T22:03:52.526Z,-0.80
2023-03-02T22:06:25.852Z,-0.80
2023-03-02T22:08:54.043Z,-0.80
2023-03-02T22:11:41.877Z,-0.90
2023-03-02T22:14:17.822Z,-0.90
2023-03-02T22:16:48.102Z,-0.90
2023-03-02T22:19:32.326Z,-0.90
2023-03-02T22:22:03.154Z,-1.00
2023-03-02T22:24:32.358Z,-1.00
2023-03-02T22:27:28.931Z,-0.80
2023-03-02T22:30:00.570Z,-0.70
2023-03-02T22:32:36.955Z,-0.70
2023-03-02T22:35:26.219Z,-0.80
2023-03-02T22:38:05.246Z,-0.90
2023-03-02T22:40:35.084Z,-1.10
2023-03-02T22:43:21.826Z,-1.20
2023-03-02T22:45:49.330Z,-1.30
2023-03-02T22:48:19.640Z,-1.40
2023-03-02T22:50:49.346Z,-1.50
2023-03-02T22:53:25.236Z,-1.50
2023-03-02T22:56:01.480Z,-1.60
2023-03-02T22:58:49.671Z,-1.70
2023-03-02T23:01:29.630Z,-1.70
2023-03-02T23:04:19.708Z,-1.70
2023-03-02T23:06:53.131Z,-1.70
2023-03-02T23:09:26.590Z,-1.70
2023-03-02T23:11:56.892Z,-1.70
2023-03-02T23:14:34.336Z,-1.70
2023-03-02T23:17:34.286Z,-1.40
2023-03-02T23:20:02.629Z,-1.30
2023-03-02T23:22:31.445Z,-1.20
2023-03-02T23:24:59.357Z,-1.00
2023-03-02T23:27:27.869Z,-1.00
2023-03-02T23:29:55.287Z,-0.90
2023-03-02T23:32:22.848Z,-0.90
2023-03-02T23:34:50.313Z,-0.90
2023-03-02T23:37:17.744Z,-0.80
2023-03-02T23:39:46.146Z,-0.70
2023-03-02T23:42:13.731Z,-0.70
2023-03-02T23:44:41.115Z,-0.60
2023-03-02T23:47:08.557Z,-0.50
2023-03-02T23:49:35.967Z,-0.40
2023-03-02T23:52:03.722Z,-0.30
2023-03-02T23:54:31.095Z,-0.30
2023-03-02T23:56:58.567Z,-0.20
2023-03-02T23:59:25.975Z,-0.20
